Botruc 33 — WDC3314 — position and weather

sailwx.info

Track history (hours):
 
Tides and Currents Weather Stations Pressure Air Temp Water Temp Dewpoint Dewpoint Depression Visibility Wind Speed Wind Dir Waves Ship Positions

Botruc 33

Owner: L & M Botruc, Galliano, LA. More information available from US FCC via Universal Licensing System and Coast Guard Vessel Documentation Center.

Last reported at 2017-Oct-20 07:32 UTC. Time now 2017-Oct-20 12:38 UTC.
Position N 29°34' W 092°18'.

Length 10 m; draft 3 m.

Type: Cargo ship. MMSI: 367005670.

Date/timePositionNaut miles runAvg speedWind from/ knotsBaromVisibWave heightAir tempDewpointWater temp
2017-Oct-20 07:32N 29°34' W 092°18'0 0.3
2017-Oct-20 07:24N 29°34' W 092°18'4 5.3
2017-Oct-20 06:44N 29°37' W 092°17'2 6.9
2017-Oct-20 06:30N 29°39' W 092°16'4 7.2
2017-Oct-20 06:00N 29°42' W 092°15'4 7.2
2017-Oct-20 05:30N 29°45' W 092°13'3 6.5
2017-Oct-20 05:00N 29°47' W 092°09'1 1.9
2017-Oct-20 04:30N 29°48' W 092°09'0 0.0
2017-Oct-20 04:00N 29°48' W 092°09'0 0.0
2017-Oct-20 03:30N 29°48' W 092°09'0 0.0
2017-Oct-20 03:00N 29°48' W 092°09'0 0.0
2017-Oct-20 02:30N 29°48' W 092°09'0 0.0
2017-Oct-20 02:00N 29°48' W 092°09'0 0.0
2017-Oct-20 01:30N 29°48' W 092°09'0 0.0
2017-Oct-20 01:00N 29°48' W 092°09'0 0.0
2017-Oct-20 00:30N 29°48' W 092°09'0 0.1
2017-Oct-20 00:00N 29°48' W 092°09'0 0.0
2017-Oct-19 23:30N 29°48' W 092°09'0 0.0
2017-Oct-19 23:00N 29°48' W 092°09'0 0.0
2017-Oct-19 22:30N 29°48' W 092°09'0 0.0
2017-Oct-19 22:00N 29°48' W 092°09'0 0.0
2017-Oct-19 21:30N 29°48' W 092°09'0 0.0
2017-Oct-19 21:01N 29°48' W 092°09'0 0.0
2017-Oct-19 20:30N 29°48' W 092°09'0 0.0
2017-Oct-19 20:00N 29°48' W 092°09'0 0.1
2017-Oct-19 19:30N 29°48' W 092°09'0 0.0
2017-Oct-19 19:00N 29°48' W 092°09'0 0.0
2017-Oct-19 18:30N 29°48' W 092°09'0 0.0
2017-Oct-19 18:00N 29°48' W 092°09'0 0.0
2017-Oct-19 17:30N 29°48' W 092°09'0 0.0
2017-Oct-19 17:00N 29°48' W 092°09'0 0.0
2017-Oct-19 16:30N 29°48' W 092°09'0 0.0
2017-Oct-19 16:00N 29°48' W 092°09'0 0.0
2017-Oct-19 15:30N 29°48' W 092°09'0 0.1
2017-Oct-19 15:00N 29°48' W 092°09'0 0.3
2017-Oct-19 14:30N 29°47' W 092°09'3 6.7
2017-Oct-19 14:00N 29°46' W 092°12'4 7.4
2017-Oct-19 13:30N 29°43' W 092°15'  
Track history (hours):
 
Tides and Currents Weather Stations Pressure Air Temp Water Temp Dewpoint Dewpoint Depression Visibility Wind Speed Wind Dir Waves Ship Positions

Botruc 33

Owner: L & M Botruc, Galliano, LA. More information available from US FCC via Universal Licensing System and Coast Guard Vessel Documentation Center.

Last reported at 2017-Oct-20 07:32 UTC. Time now 2017-Oct-20 12:38 UTC.
Position N 29°34' W 092°18'.

Length 10 m; draft 3 m.

Type: Cargo ship. MMSI: 367005670.

Date/timePositionNaut miles runAvg speedWind from/ knotsBaromVisibWave heightAir tempDewpointWater temp
2017-Oct-20 07:32N 29°34' W 092°18'0 0.3
2017-Oct-20 07:24N 29°34' W 092°18'4 5.3
2017-Oct-20 06:44N 29°37' W 092°17'2 6.9
2017-Oct-20 06:30N 29°39' W 092°16'4 7.2
2017-Oct-20 06:00N 29°42' W 092°15'4 7.2
2017-Oct-20 05:30N 29°45' W 092°13'3 6.5
2017-Oct-20 05:00N 29°47' W 092°09'1 1.9
2017-Oct-20 04:30N 29°48' W 092°09'0 0.0
2017-Oct-20 04:00N 29°48' W 092°09'0 0.0
2017-Oct-20 03:30N 29°48' W 092°09'0 0.0
2017-Oct-20 03:00N 29°48' W 092°09'0 0.0
2017-Oct-20 02:30N 29°48' W 092°09'0 0.0
2017-Oct-20 02:00N 29°48' W 092°09'0 0.0
2017-Oct-20 01:30N 29°48' W 092°09'0 0.0
2017-Oct-20 01:00N 29°48' W 092°09'0 0.0
2017-Oct-20 00:30N 29°48' W 092°09'0 0.1
2017-Oct-20 00:00N 29°48' W 092°09'0 0.0
2017-Oct-19 23:30N 29°48' W 092°09'0 0.0
2017-Oct-19 23:00N 29°48' W 092°09'0 0.0
2017-Oct-19 22:30N 29°48' W 092°09'0 0.0
2017-Oct-19 22:00N 29°48' W 092°09'0 0.0
2017-Oct-19 21:30N 29°48' W 092°09'0 0.0
2017-Oct-19 21:01N 29°48' W 092°09'0 0.0
2017-Oct-19 20:30N 29°48' W 092°09'0 0.0
2017-Oct-19 20:00N 29°48' W 092°09'0 0.1
2017-Oct-19 19:30N 29°48' W 092°09'0 0.0
2017-Oct-19 19:00N 29°48' W 092°09'0 0.0
2017-Oct-19 18:30N 29°48' W 092°09'0 0.0
2017-Oct-19 18:00N 29°48' W 092°09'0 0.0
2017-Oct-19 17:30N 29°48' W 092°09'0 0.0
2017-Oct-19 17:00N 29°48' W 092°09'0 0.0
2017-Oct-19 16:30N 29°48' W 092°09'0 0.0
2017-Oct-19 16:00N 29°48' W 092°09'0 0.0
2017-Oct-19 15:30N 29°48' W 092°09'0 0.1
2017-Oct-19 15:00N 29°48' W 092°09'0 0.3
2017-Oct-19 14:30N 29°47' W 092°09'3 6.7
2017-Oct-19 14:00N 29°46' W 092°12'4 7.4
2017-Oct-19 13:30N 29°43' W 092°15'  

Dump ship's entire track history